Time;durP1;ratioP1;P1;durP2;ratioP2;P2;SDS_P1;SDS_P2;PMS_P1;PMS_P2;Temp;Humidity;BMP_temperature;BMP_pressure;BME280_temperature;BME280_humidity;BME280_pressure;Samples;Min_cycle;Max_cycle;Signal;HPM_P1;HPM_P2
2021/01/20 00:01:24;;;;;;;4.15;2.47;;;1.10;99.90;;;;;;4958774;28;20046;-83
2021/01/20 00:03:50;;;;;;;3.15;2.10;;;1.10;99.90;;;;;;4957454;29;20024;-83
2021/01/20 00:06:15;;;;;;;4.20;2.53;;;1.10;99.90;;;;;;4959241;28;20063;-83
2021/01/20 00:08:41;;;;;;;4.63;2.80;;;1.20;99.90;;;;;;4957355;29;20042;-83
2021/01/20 00:11:07;;;;;;;3.83;2.15;;;1.20;99.90;;;;;;4957253;29;20118;-82
2021/01/20 00:13:33;;;;;;;3.05;2.20;;;1.20;99.90;;;;;;4958396;29;20023;-83
2021/01/20 00:15:59;;;;;;;2.97;2.35;;;1.30;99.90;;;;;;4958425;28;20599;-82
2021/01/20 00:18:24;;;;;;;3.83;2.60;;;1.20;99.90;;;;;;4957159;29;20040;-83
2021/01/20 00:20:50;;;;;;;3.95;2.70;;;1.20;99.90;;;;;;4958402;28;20026;-83
2021/01/20 00:23:16;;;;;;;3.15;2.45;;;1.20;99.90;;;;;;4958358;28;20039;-82
2021/01/20 00:25:42;;;;;;;5.18;2.60;;;1.20;99.90;;;;;;4957139;29;20515;-83
2021/01/20 00:28:08;;;;;;;3.53;2.15;;;1.30;99.90;;;;;;4958314;28;20467;-83
2021/01/20 00:30:33;;;;;;;4.47;2.30;;;1.20;99.90;;;;;;4957049;29;20083;-82
2021/01/20 00:32:59;;;;;;;4.10;2.60;;;1.20;99.90;;;;;;4957190;29;20029;-82
2021/01/20 00:35:25;;;;;;;3.30;2.42;;;1.20;99.90;;;;;;4956755;29;20038;-82
2021/01/20 00:37:51;;;;;;;5.30;2.72;;;1.20;99.90;;;;;;4956950;28;20031;-82
2021/01/20 00:40:17;;;;;;;6.18;2.30;;;1.20;99.90;;;;;;4956821;29;20031;-82
2021/01/20 00:42:43;;;;;;;3.97;2.33;;;1.30;99.90;;;;;;4956721;29;20019;-82
2021/01/20 00:45:09;;;;;;;7.90;2.72;;;1.30;99.90;;;;;;4956501;29;20058;-82
2021/01/20 00:47:35;;;;;;;4.60;2.50;;;1.20;99.90;;;;;;4956606;29;20043;-82
2021/01/20 00:50:01;;;;;;;4.60;2.38;;;1.20;99.90;;;;;;4957967;28;20027;-82
2021/01/20 00:52:27;;;;;;;4.70;2.60;;;1.30;99.90;;;;;;4957284;28;20103;-82
2021/01/20 00:54:52;;;;;;;3.28;2.10;;;1.30;99.90;;;;;;4956811;29;20031;-82
2021/01/20 00:57:18;;;;;;;2.20;1.90;;;1.40;99.90;;;;;;4956477;29;20023;-82
2021/01/20 00:59:43;;;;;;;4.13;2.28;;;1.30;99.90;;;;;;4956491;29;20029;-82
2021/01/20 01:02:09;;;;;;;3.05;2.17;;;1.30;99.90;;;;;;4956394;29;20137;-82
2021/01/20 01:04:35;;;;;;;4.32;2.50;;;1.40;99.90;;;;;;4957632;28;20091;-82
2021/01/20 01:07:00;;;;;;;2.63;1.77;;;1.50;99.90;;;;;;4957864;28;20059;-82
2021/01/20 01:09:26;;;;;;;3.75;1.98;;;1.60;99.90;;;;;;4957804;28;20023;-82
2021/01/20 01:11:52;;;;;;;3.58;2.08;;;1.50;99.90;;;;;;4957562;28;20086;-82
2021/01/20 01:14:17;;;;;;;5.63;2.20;;;1.70;99.90;;;;;;4957389;28;20037;-82
2021/01/20 01:16:44;;;;;;;3.22;2.08;;;1.70;99.90;;;;;;4957415;28;20607;-82
2021/01/20 01:19:10;;;;;;;3.17;2.15;;;1.70;99.90;;;;;;4956113;29;20059;-82
2021/01/20 01:21:35;;;;;;;3.35;1.83;;;1.70;99.90;;;;;;4957563;28;20027;-82
2021/01/20 01:24:01;;;;;;;3.63;2.28;;;1.70;99.90;;;;;;4956095;29;20027;-82
2021/01/20 01:26:27;;;;;;;3.13;2.25;;;1.70;99.90;;;;;;4955984;29;20023;-82
2021/01/20 01:28:53;;;;;;;3.53;2.15;;;1.70;99.90;;;;;;4956265;29;20059;-82
2021/01/20 01:31:19;;;;;;;2.70;2.17;;;1.70;99.90;;;;;;4957155;28;20390;-82
2021/01/20 01:33:44;;;;;;;2.33;2.05;;;1.60;99.90;;;;;;4955873;29;20039;-82
2021/01/20 01:36:10;;;;;;;3.88;2.03;;;1.60;99.90;;;;;;4956870;28;20038;-82
2021/01/20 01:38:36;;;;;;;3.80;2.50;;;1.60;99.90;;;;;;4957298;28;20024;-82
2021/01/20 01:41:02;;;;;;;3.42;2.03;;;1.60;99.90;;;;;;4956945;28;20023;-82
2021/01/20 01:43:27;;;;;;;2.63;1.90;;;1.60;99.90;;;;;;4955689;29;20091;-82
2021/01/20 01:45:53;;;;;;;2.65;2.00;;;1.50;99.90;;;;;;4956670;28;20115;-82
2021/01/20 01:48:19;;;;;;;2.97;2.00;;;1.50;99.90;;;;;;4955546;29;20031;-82
2021/01/20 01:50:48;;;;;;;2.83;2.08;;;1.60;99.90;;;;;;4957307;28;20035;-82
2021/01/20 01:53:14;;;;;;;5.03;2.03;;;1.60;99.90;;;;;;4956985;28;20031;-82
2021/01/20 01:55:40;;;;;;;4.40;2.15;;;1.50;99.90;;;;;;4956608;28;20074;-82
2021/01/20 01:58:06;;;;;;;3.30;2.00;;;1.60;99.90;;;;;;4956902;28;20035;-82
2021/01/20 02:00:33;;;;;;;2.58;1.90;;;1.60;99.90;;;;;;4956604;28;20077;-82
2021/01/20 02:03:02;;;;;;;2.92;1.90;;;1.60;99.90;;;;;;4956837;28;20027;-82
2021/01/20 02:05:28;;;;;;;3.63;2.13;;;1.60;99.90;;;;;;4954399;28;20031;-82
2021/01/20 02:07:55;;;;;;;2.92;1.90;;;1.50;99.90;;;;;;4955207;29;20506;-82
2021/01/20 02:10:21;;;;;;;4.10;2.28;;;1.50;99.90;;;;;;4956411;29;20085;-82
2021/01/20 02:12:55;;;;;;;2.55;1.90;;;1.50;99.90;;;;;;4955986;29;20110;-82
2021/01/20 02:15:27;;;;;;;;;;;1.50;99.90;;;;;;4955496;29;20434;-82
2021/01/20 02:17:59;;;;;;;3.85;1.90;;;1.50;99.90;;;;;;4955114;29;19957;-82
2021/01/20 02:20:40;;;;;;;2.97;2.10;;;1.60;99.90;;;;;;4955058;29;20446;-82
2021/01/20 02:23:12;;;;;;;4.00;2.05;;;1.50;99.90;;;;;;4954973;29;20023;-82
2021/01/20 02:26:15;;;;;;;2.83;1.83;;;1.60;99.90;;;;;;4954933;29;20027;-82
2021/01/20 02:28:54;;;;;;;4.22;1.83;;;1.60;99.90;;;;;;4954861;29;20031;-81
2021/01/20 02:31:24;;;;;;;3.20;1.80;;;1.80;99.90;;;;;;4956115;28;20106;-82
2021/01/20 02:33:52;;;;;;;2.28;1.50;;;2.00;99.90;;;;;;4955356;29;20411;-81
2021/01/20 02:36:20;;;;;;;2.72;2.03;;;2.30;99.90;;;;;;4954569;28;20497;-82
2021/01/20 02:38:47;;;;;;;2.90;1.55;;;2.30;99.90;;;;;;4955930;28;20034;-81
2021/01/20 02:41:24;;;;;;;2.33;1.60;;;2.50;99.90;;;;;;4954752;29;20502;-82
2021/01/20 02:43:50;;;;;;;2.08;1.30;;;2.50;99.90;;;;;;4954437;29;20050;-81
2021/01/20 02:46:16;;;;;;;1.48;1.30;;;2.90;99.90;;;;;;4956146;28;20118;-81
2021/01/20 02:48:41;;;;;;;2.38;1.60;;;3.10;99.90;;;;;;4954580;29;20061;-82
2021/01/20 02:51:10;;;;;;;2.40;1.38;;;3.20;99.90;;;;;;4954486;29;20479;-82
2021/01/20 02:53:36;;;;;;;1.77;1.13;;;3.20;99.90;;;;;;4954438;29;20034;-81
2021/01/20 02:56:06;;;;;;;2.30;1.40;;;3.40;99.90;;;;;;4954733;29;20451;-82
2021/01/20 02:58:33;;;;;;;3.05;1.40;;;3.30;99.90;;;;;;4955734;28;20027;-81
2021/01/20 03:01:03;;;;;;;1.23;1.13;;;3.30;99.90;;;;;;4954378;29;20030;-82
2021/01/20 03:03:33;;;;;;;2.17;1.30;;;3.40;99.90;;;;;;4955622;28;20023;-82
2021/01/20 03:05:59;;;;;;;2.10;1.40;;;3.30;99.90;;;;;;4955550;28;20024;-82
2021/01/20 03:08:26;;;;;;;1.63;1.50;;;3.20;99.90;;;;;;4955519;28;20391;-82
2021/01/20 03:10:52;;;;;;;1.90;1.55;;;3.20;99.90;;;;;;4954235;29;20509;-82
2021/01/20 03:13:19;;;;;;;1.75;1.65;;;3.00;99.90;;;;;;4954207;29;20118;-82
2021/01/20 03:15:46;;;;;;;2.30;2.03;;;2.90;99.90;;;;;;4954009;29;20160;-82
2021/01/20 03:18:12;;;;;;;2.95;1.92;;;2.90;99.90;;;;;;4954180;29;20062;-82
2021/01/20 03:20:38;;;;;;;2.15;1.67;;;2.80;99.90;;;;;;4955694;28;20024;-82
2021/01/20 03:23:05;;;;;;;2.35;1.88;;;2.60;99.90;;;;;;4954127;29;20483;-82
2021/01/20 03:25:31;;;;;;;4.10;2.00;;;2.50;99.90;;;;;;4954088;29;20050;-82
2021/01/20 03:27:57;;;;;;;2.58;1.88;;;2.40;99.90;;;;;;4955306;28;20020;-82
2021/01/20 03:30:23;;;;;;;2.30;1.75;;;2.40;99.90;;;;;;4955358;28;20034;-82
2021/01/20 03:32:49;;;;;;;3.97;2.20;;;2.30;99.90;;;;;;4955604;28;20483;-82
2021/01/20 03:35:15;;;;;;;2.65;1.80;;;2.20;99.90;;;;;;4953992;29;20118;-82
2021/01/20 03:37:42;;;;;;;2.42;2.15;;;2.10;99.90;;;;;;4955219;28;20047;-82
2021/01/20 03:40:08;;;;;;;3.70;2.30;;;2.20;99.90;;;;;;4953944;29;20106;-82
2021/01/20 03:42:34;;;;;;;3.00;2.00;;;2.00;99.90;;;;;;4953968;29;20027;-82
2021/01/20 03:45:00;;;;;;;3.33;2.40;;;2.00;99.90;;;;;;4953711;29;20475;-82
2021/01/20 03:47:26;;;;;;;3.38;2.33;;;2.00;99.90;;;;;;4953912;29;20038;-82
2021/01/20 03:49:51;;;;;;;5.72;2.42;;;2.00;99.90;;;;;;4953911;29;20024;-82
2021/01/20 03:52:17;;;;;;;3.83;2.60;;;2.00;99.90;;;;;;4953830;29;20034;-82
2021/01/20 03:54:43;;;;;;;3.58;2.15;;;2.00;99.90;;;;;;4955072;28;20031;-82
2021/01/20 03:57:09;;;;;;;3.97;2.30;;;2.10;99.90;;;;;;4953822;29;20034;-82
2021/01/20 03:59:34;;;;;;;4.07;2.28;;;2.00;99.90;;;;;;4953847;29;20024;-82
2021/01/20 04:02:00;;;;;;;3.60;2.65;;;2.00;99.90;;;;;;4953819;29;20042;-82
2021/01/20 04:04:26;;;;;;;3.42;2.40;;;1.90;99.90;;;;;;4953745;29;20031;-82
2021/01/20 04:06:52;;;;;;;4.45;2.70;;;2.00;99.90;;;;;;4955032;28;20043;-82
2021/01/20 04:09:17;;;;;;;2.88;2.30;;;2.00;99.90;;;;;;4953739;29;20046;-81
2021/01/20 04:11:43;;;;;;;4.28;2.55;;;2.00;99.90;;;;;;4953770;29;20024;-82
2021/01/20 04:14:09;;;;;;;6.25;3.28;;;2.00;99.90;;;;;;4953626;29;20027;-82
2021/01/20 04:16:34;;;;;;;5.35;3.10;;;1.90;99.90;;;;;;4953747;29;20114;-82
2021/01/20 04:19:02;;;;;;;5.63;3.53;;;1.90;99.90;;;;;;4953653;29;20023;-82
2021/01/20 04:21:28;;;;;;;6.93;3.20;;;1.80;99.90;;;;;;4953661;29;20090;-82
2021/01/20 04:23:54;;;;;;;2.92;2.25;;;1.70;99.90;;;;;;4953626;29;20027;-82
2021/01/20 04:26:20;;;;;;;4.60;2.70;;;1.70;99.90;;;;;;4953595;28;20483;-82
2021/01/20 04:28:47;;;;;;;4.30;3.08;;;1.60;99.90;;;;;;4956162;29;20073;-82
2021/01/20 04:31:13;;;;;;;3.55;2.50;;;1.60;99.90;;;;;;4956985;29;20023;-82
2021/01/20 04:33:39;;;;;;;3.92;2.63;;;1.50;99.90;;;;;;4956931;29;20030;-82
2021/01/20 04:36:05;;;;;;;5.15;3.08;;;1.50;99.90;;;;;;4958241;28;20034;-82
2021/01/20 04:38:30;;;;;;;6.22;3.25;;;1.50;99.90;;;;;;4958077;28;20042;-82
2021/01/20 04:40:57;;;;;;;4.45;3.25;;;1.50;99.90;;;;;;4957669;29;20023;-82
2021/01/20 04:43:24;;;;;;;5.35;3.25;;;1.60;99.90;;;;;;4958305;28;20071;-82
2021/01/20 04:45:51;;;;;;;4.45;3.13;;;1.50;99.90;;;;;;4957910;28;20558;-82
2021/01/20 04:48:19;;;;;;;5.05;3.20;;;1.60;99.90;;;;;;4958010;28;20033;-82
2021/01/20 04:50:46;;;;;;;4.85;3.45;;;1.60;99.90;;;;;;4956661;29;20038;-82
2021/01/20 04:53:14;;;;;;;5.72;3.17;;;1.70;99.90;;;;;;4957865;28;20107;-82
2021/01/20 04:55:44;;;;;;;3.28;2.58;;;1.60;99.90;;;;;;4957764;28;20034;-82
2021/01/20 04:58:13;;;;;;;4.00;2.80;;;1.60;99.90;;;;;;4957761;28;20106;-82
2021/01/20 05:00:40;;;;;;;4.07;3.10;;;1.60;99.90;;;;;;4956431;29;20118;-82
2021/01/20 05:03:08;;;;;;;4.45;3.05;;;1.60;99.90;;;;;;4957675;28;20042;-82
2021/01/20 05:05:35;;;;;;;5.95;3.38;;;1.70;99.90;;;;;;4957670;28;20110;-82
2021/01/20 05:08:01;;;;;;;4.93;3.30;;;1.70;99.90;;;;;;4956487;29;20127;-82
2021/01/20 05:10:27;;;;;;;5.25;3.88;;;1.80;99.90;;;;;;4958114;28;20063;-82
2021/01/20 05:12:53;;;;;;;4.85;3.13;;;1.80;99.90;;;;;;4957497;28;20023;-82
2021/01/20 05:15:32;;;;;;;5.32;3.03;;;1.90;99.90;;;;;;4956090;29;20031;-82
2021/01/20 05:18:01;;;;;;;5.65;3.17;;;1.90;99.90;;;;;;4956218;29;20479;-82
2021/01/20 05:20:37;;;;;;;5.97;3.83;;;1.80;99.90;;;;;;4956097;29;20227;-82
2021/01/20 05:23:04;;;;;;;4.70;3.08;;;1.80;99.90;;;;;;4956057;29;20027;-82
2021/01/20 05:25:35;;;;;;;3.35;2.47;;;1.80;99.90;;;;;;4957284;28;20027;-82
2021/01/20 05:28:34;;;;;;;5.80;3.67;;;1.80;99.90;;;;;;4955973;29;20027;-82
2021/01/20 05:31:02;;;;;;;6.70;3.85;;;1.80;99.90;;;;;;4946369;28;20126;-82
2021/01/20 05:33:35;;;;;;;4.00;2.83;;;1.80;99.90;;;;;;4957132;28;20027;-82
2021/01/20 05:36:09;;;;;;;4.45;3.40;;;1.80;99.90;;;;;;4956984;28;20475;-82
2021/01/20 05:38:49;;;;;;;4.18;3.10;;;1.80;99.90;;;;;;4955745;28;20102;-82
2021/01/20 05:41:24;;;;;;;4.60;2.97;;;1.80;99.90;;;;;;4955747;29;20030;-82
2021/01/20 05:44:12;;;;;;;5.43;3.70;;;1.70;99.90;;;;;;4955512;29;20167;-82
2021/01/20 05:46:40;;;;;;;3.60;2.55;;;1.80;99.90;;;;;;4957134;28;20086;-82
2021/01/20 05:49:20;;;;;;;5.40;3.95;;;1.80;99.90;;;;;;4957157;28;20032;-82
2021/01/20 05:51:46;;;;;;;6.18;4.03;;;1.70;99.90;;;;;;4956728;28;20139;-82
2021/01/20 05:54:11;;;;;;;6.18;3.40;;;1.70;99.90;;;;;;4955559;29;20487;-82
2021/01/20 05:56:38;;;;;;;4.72;3.05;;;1.70;99.90;;;;;;4956710;28;20390;-82
2021/01/20 05:59:10;;;;;;;5.05;3.60;;;1.70;99.90;;;;;;4956641;28;20106;-82
2021/01/20 06:01:37;;;;;;;8.45;4.32;;;1.80;99.90;;;;;;4955397;29;20035;-81
2021/01/20 06:04:05;;;;;;;8.13;4.55;;;1.80;99.90;;;;;;4956613;28;20024;-82
2021/01/20 06:06:32;;;;;;;7.07;4.43;;;1.90;99.90;;;;;;4956752;28;20475;-82
2021/01/20 06:08:58;;;;;;;4.68;3.60;;;2.00;99.90;;;;;;4955184;29;20086;-82
2021/01/20 06:11:23;;;;;;;6.40;4.45;;;2.10;99.90;;;;;;4955179;29;20031;-82
2021/01/20 06:13:49;;;;;;;7.47;4.60;;;2.20;99.90;;;;;;4955115;29;20027;-82
2021/01/20 06:16:16;;;;;;;8.15;4.40;;;2.30;99.90;;;;;;4956574;28;20485;-81
2021/01/20 06:18:50;;;;;;;8.30;4.55;;;2.30;99.90;;;;;;4955034;29;20033;-81
2021/01/20 06:21:17;;;;;;;5.70;3.75;;;2.30;99.90;;;;;;4954989;29;20062;-81
2021/01/20 06:24:00;;;;;;;6.63;3.88;;;2.40;99.90;;;;;;4956209;28;20030;-82
2021/01/20 06:26:26;;;;;;;7.25;4.22;;;2.40;99.90;;;;;;4954904;29;20070;-82
2021/01/20 06:28:58;;;;;;;7.60;3.78;;;2.40;99.90;;;;;;4956672;28;20032;-81
2021/01/20 06:31:25;;;;;;;6.88;3.88;;;2.40;99.90;;;;;;4954861;29;20035;-82
2021/01/20 06:33:51;;;;;;;6.63;4.47;;;2.40;99.90;;;;;;4954787;29;20037;-81
2021/01/20 06:36:37;;;;;;;6.47;4.18;;;2.40;99.90;;;;;;4954610;28;20098;-81
2021/01/20 06:39:27;;;;;;;9.05;4.13;;;2.50;99.90;;;;;;4956231;28;20098;-82
2021/01/20 06:41:54;;;;;;;6.78;4.05;;;2.50;99.90;;;;;;4955945;28;20027;-81
2021/01/20 06:44:20;;;;;;;7.53;4.03;;;2.40;99.90;;;;;;4954398;29;20046;-81
2021/01/20 06:46:55;;;;;;;8.38;4.22;;;2.40;99.90;;;;;;4955829;28;20031;-82
2021/01/20 06:49:21;;;;;;;9.13;5.03;;;2.50;99.90;;;;;;4954536;29;20015;-81
2021/01/20 06:52:09;;;;;;;8.35;4.78;;;2.50;99.90;;;;;;4955322;28;20023;-81
2021/01/20 06:54:46;;;;;;;6.80;4.38;;;2.60;99.90;;;;;;4954483;29;20077;-82
2021/01/20 06:57:28;;;;;;;9.70;4.70;;;2.60;99.90;;;;;;4954425;29;20031;-81
2021/01/20 07:00:09;;;;;;;5.35;3.92;;;2.60;99.90;;;;;;4955788;28;20046;-82
2021/01/20 07:02:36;;;;;;;7.20;4.22;;;2.60;99.90;;;;;;4955589;28;20023;-82
2021/01/20 07:05:03;;;;;;;5.80;4.28;;;2.60;99.90;;;;;;4954304;29;20027;-81
2021/01/20 07:07:48;;;;;;;6.68;4.13;;;2.60;99.90;;;;;;4954303;29;20506;-82
2021/01/20 07:10:15;;;;;;;5.65;3.90;;;2.70;99.90;;;;;;4954289;29;20447;-82
2021/01/20 07:13:09;;;;;;;8.23;4.40;;;2.70;99.90;;;;;;4955495;28;20383;-82
2021/01/20 07:15:39;;;;;;;6.15;3.95;;;2.70;99.90;;;;;;4954100;29;20407;-82
2021/01/20 07:18:07;;;;;;;6.82;4.15;;;2.70;99.90;;;;;;4954193;29;20123;-82
2021/01/20 07:20:33;;;;;;;6.50;4.10;;;2.70;99.90;;;;;;4954172;29;20074;-82
2021/01/20 07:23:00;;;;;;;6.45;4.00;;;2.70;99.90;;;;;;4955655;28;20391;-82
2021/01/20 07:25:29;;;;;;;6.70;4.20;;;2.70;99.90;;;;;;4954119;29;20034;-82
2021/01/20 07:27:54;;;;;;;6.53;4.05;;;2.80;99.90;;;;;;4954094;29;20031;-82
2021/01/20 07:30:21;;;;;;;6.18;3.78;;;2.90;99.90;;;;;;4938223;29;20031;-82
2021/01/20 07:32:47;;;;;;;6.32;3.40;;;2.90;99.90;;;;;;4954046;29;20027;-82
2021/01/20 07:35:25;;;;;;;6.80;3.60;;;3.00;99.90;;;;;;4953977;29;20027;-81
2021/01/20 07:38:05;;;;;;;5.85;3.38;;;3.00;99.90;;;;;;4954052;28;20023;-82
2021/01/20 07:40:39;;;;;;;4.43;3.05;;;3.00;99.90;;;;;;4954003;29;20026;-82
2021/01/20 07:43:06;;;;;;;6.20;3.63;;;3.00;99.90;;;;;;4955229;28;20099;-82
2021/01/20 07:45:40;;;;;;;6.30;3.80;;;3.10;99.90;;;;;;4955131;28;20438;-82
2021/01/20 07:48:09;;;;;;;5.28;3.15;;;3.20;99.90;;;;;;4955145;28;20041;-83
2021/01/20 07:50:52;;;;;;;6.72;3.30;;;3.30;99.90;;;;;;4955188;28;20458;-84
2021/01/20 07:53:19;;;;;;;12.37;3.43;;;3.20;99.90;;;;;;4953924;29;20183;-83
2021/01/20 07:55:46;;;;;;;5.95;3.22;;;3.30;99.90;;;;;;4954076;29;20053;-83
2021/01/20 07:58:12;;;;;;;6.72;3.88;;;3.20;99.90;;;;;;4955120;28;20468;-83
2021/01/20 08:00:44;;;;;;;5.13;3.55;;;3.10;99.90;;;;;;4955081;28;20101;-83
2021/01/20 08:03:10;;;;;;;6.45;3.10;;;3.00;99.90;;;;;;4955627;28;20023;-83
2021/01/20 08:05:36;;;;;;;5.82;3.78;;;2.90;99.90;;;;;;4957483;29;20054;-85
2021/01/20 08:08:10;;;;;;;7.90;4.90;;;2.90;99.90;;;;;;4957432;29;20042;-87
2021/01/20 08:10:36;;;;;;;6.43;4.28;;;2.80;99.90;;;;;;4958689;28;20027;-87
2021/01/20 08:13:03;;;;;;;6.97;4.30;;;3.00;99.90;;;;;;4957398;29;20031;-87
2021/01/20 08:15:31;;;;;;;7.55;4.60;;;3.00;99.90;;;;;;4957296;29;20368;-86
2021/01/20 08:17:57;;;;;;;6.40;4.22;;;3.00;99.90;;;;;;4957245;29;20498;-86
2021/01/20 08:20:24;;;;;;;8.70;4.15;;;2.90;99.90;;;;;;4957377;29;20479;-86
2021/01/20 08:22:51;;;;;;;7.10;4.47;;;3.00;99.90;;;;;;4958432;28;20026;-87
2021/01/20 08:25:22;;;;;;;13.63;7.47;;;3.10;99.90;;;;;;4957186;29;20035;-86
2021/01/20 08:27:49;;;;;;;5.82;3.75;;;3.20;99.90;;;;;;4957152;29;20482;-84
2021/01/20 08:30:32;;;;;;;6.18;3.70;;;3.20;99.90;;;;;;4958521;28;20031;-86
2021/01/20 08:32:58;;;;;;;7.63;5.38;;;3.30;99.90;;;;;;4958497;28;20037;-86
2021/01/20 08:35:26;;;;;;;7.85;4.47;;;3.30;99.90;;;;;;4956884;29;20024;-85
2021/01/20 08:37:52;;;;;;;8.30;4.85;;;3.30;99.90;;;;;;4956833;28;20028;-85
2021/01/20 08:40:18;;;;;;;6.70;3.75;;;3.30;99.90;;;;;;4958126;28;20533;-86
2021/01/20 08:42:44;;;;;;;9.30;3.97;;;3.30;99.90;;;;;;4956879;29;20027;-86
2021/01/20 08:45:14;;;;;;;4.93;3.60;;;3.40;99.90;;;;;;4956772;29;20058;-86
2021/01/20 08:47:56;;;;;;;7.97;4.57;;;3.40;99.90;;;;;;4956778;29;20368;-85
2021/01/20 08:50:33;;;;;;;9.88;5.38;;;3.40;99.90;;;;;;4957947;29;20542;-84
2021/01/20 08:53:00;;;;;;;10.75;5.72;;;3.40;99.90;;;;;;4956617;29;20039;-86
2021/01/20 08:55:35;;;;;;;7.97;4.97;;;3.30;99.90;;;;;;4956503;29;20035;-84
2021/01/20 08:58:16;;;;;;;10.75;5.82;;;3.40;99.90;;;;;;4956531;29;20034;-83
2021/01/20 09:00:42;;;;;;;10.27;6.38;;;3.30;99.90;;;;;;4956483;29;20054;-83
2021/01/20 09:03:18;;;;;;;10.32;5.38;;;3.30;99.90;;;;;;4957775;28;20079;-83
2021/01/20 09:05:45;;;;;;;10.45;6.18;;;3.30;99.90;;;;;;4956422;29;20031;-83
2021/01/20 09:08:11;;;;;;;10.75;6.43;;;3.40;99.90;;;;;;4956337;29;20050;-84
2021/01/20 09:10:37;;;;;;;9.85;6.40;;;3.30;99.90;;;;;;4957537;28;20031;-82
2021/01/20 09:13:03;;;;;;;10.73;6.15;;;3.30;99.90;;;;;;4955826;28;20531;-84
2021/01/20 09:15:29;;;;;;;11.05;6.85;;;3.30;99.90;;;;;;4956119;29;20035;-83
2021/01/20 09:17:55;;;;;;;10.10;5.82;;;3.20;99.90;;;;;;4957221;29;20110;-84
2021/01/20 09:20:20;;;;;;;10.45;6.43;;;3.20;99.90;;;;;;4957512;28;20035;-84
2021/01/20 09:22:47;;;;;;;11.05;6.45;;;3.20;99.90;;;;;;4957346;28;20034;-83
2021/01/20 09:25:13;;;;;;;9.10;5.90;;;3.30;99.90;;;;;;4955983;29;20035;-83
2021/01/20 09:27:40;;;;;;;11.77;6.50;;;3.30;99.90;;;;;;4957290;28;20042;-84
2021/01/20 09:30:07;;;;;;;11.13;5.55;;;3.30;99.90;;;;;;4955918;29;20114;-84
2021/01/20 09:32:38;;;;;;;14.45;6.75;;;3.30;99.90;;;;;;4956003;29;20031;-84
2021/01/20 09:35:11;;;;;;;12.68;7.05;;;3.30;99.90;;;;;;4955885;29;20082;-85
2021/01/20 09:37:39;;;;;;;11.50;6.47;;;3.30;99.90;;;;;;4955805;28;20486;-85
2021/01/20 09:40:11;;;;;;;13.90;6.47;;;3.30;99.90;;;;;;4955764;29;20027;-84
2021/01/20 09:42:39;;;;;;;11.95;6.85;;;3.40;99.90;;;;;;4955731;29;20023;-85
2021/01/20 09:45:07;;;;;;;10.40;6.13;;;3.40;99.90;;;;;;4956786;28;20443;-85
2021/01/20 09:47:33;;;;;;;18.95;7.53;;;3.40;99.90;;;;;;4955654;29;20062;-84
2021/01/20 09:49:59;;;;;;;10.63;6.20;;;3.40;99.90;;;;;;4956861;28;20059;-86
2021/01/20 09:52:25;;;;;;;11.40;6.20;;;3.50;99.90;;;;;;4955596;29;20031;-85
2021/01/20 09:54:53;;;;;;;13.07;6.93;;;3.60;99.90;;;;;;4955443;29;20031;-85
2021/01/20 09:57:19;;;;;;;11.02;6.60;;;3.70;99.90;;;;;;4955606;29;20019;-83
2021/01/20 09:59:45;;;;;;;11.10;6.15;;;3.70;99.90;;;;;;4956668;28;20027;-87
2021/01/20 10:02:11;;;;;;;11.05;6.57;;;3.80;99.90;;;;;;4956113;29;20555;-84
2021/01/20 10:04:36;;;;;;;12.48;6.40;;;3.90;99.90;;;;;;4956773;28;20102;-84
2021/01/20 10:07:02;;;;;;;12.35;6.78;;;3.90;99.90;;;;;;4955341;29;20019;-84
2021/01/20 10:09:28;;;;;;;9.05;5.55;;;3.90;99.90;;;;;;4955202;29;20028;-83
2021/01/20 10:11:54;;;;;;;10.23;5.93;;;3.90;99.90;;;;;;4955230;29;20031;-83
2021/01/20 10:14:20;;;;;;;13.07;7.55;;;4.00;99.90;;;;;;4956345;28;20023;-84
2021/01/20 10:16:49;;;;;;;9.43;6.15;;;4.00;99.90;;;;;;4955036;29;20114;-84
2021/01/20 10:19:15;;;;;;;10.75;6.40;;;4.00;99.90;;;;;;4956319;28;20024;-83
2021/01/20 10:21:41;;;;;;;11.02;6.72;;;4.00;99.90;;;;;;4955251;29;20114;-84
2021/01/20 10:24:09;;;;;;;11.93;6.25;;;4.00;99.90;;;;;;4954925;29;20086;-84
2021/01/20 10:26:35;;;;;;;8.90;5.90;;;4.10;99.90;;;;;;4955441;28;20026;-85
2021/01/20 10:29:02;;;;;;;8.77;5.50;;;4.20;99.90;;;;;;4955225;29;20035;-85
2021/01/20 10:31:32;;;;;;;9.05;5.32;;;4.20;99.90;;;;;;4954871;29;20395;-85
2021/01/20 10:33:59;;;;;;;10.43;5.68;;;4.20;99.90;;;;;;4954809;29;20399;-83
2021/01/20 10:36:25;;;;;;;11.77;5.25;;;4.30;99.90;;;;;;4954760;28;20023;-85
2021/01/20 10:38:51;;;;;;;7.72;4.78;;;4.40;99.90;;;;;;4955993;28;20027;-85
2021/01/20 10:41:21;;;;;;;9.52;4.97;;;4.40;99.90;;;;;;4954797;29;20031;-85
2021/01/20 10:43:48;;;;;;;7.30;4.72;;;4.50;99.90;;;;;;4954675;29;20475;-85
2021/01/20 10:46:15;;;;;;;9.73;4.93;;;4.60;99.90;;;;;;4955852;28;20130;-85
2021/01/20 10:48:41;;;;;;;7.20;4.80;;;4.70;99.90;;;;;;4954672;29;20035;-85
2021/01/20 10:51:07;;;;;;;8.82;4.53;;;4.70;99.90;;;;;;4956107;28;20055;-85
2021/01/20 10:53:36;;;;;;;6.38;3.65;;;4.80;99.90;;;;;;4954481;29;20038;-84
2021/01/20 10:56:02;;;;;;;8.70;4.40;;;4.90;99.90;;;;;;4954676;29;20027;-84
2021/01/20 10:58:27;;;;;;;10.45;4.05;;;4.90;99.90;;;;;;4954453;29;20595;-86
2021/01/20 11:00:53;;;;;;;7.53;4.72;;;5.00;99.90;;;;;;4954407;29;20027;-86
2021/01/20 11:03:19;;;;;;;8.75;4.03;;;5.00;99.90;;;;;;4954355;29;20106;-87
2021/01/20 11:05:45;;;;;;;8.07;4.07;;;5.00;99.90;;;;;;4955683;28;20027;-86
2021/01/20 11:08:11;;;;;;;6.38;3.83;;;5.00;99.90;;;;;;4955672;28;20368;-86
2021/01/20 11:10:37;;;;;;;6.53;4.10;;;5.10;99.90;;;;;;4954315;29;20419;-85
2021/01/20 11:13:07;;;;;;;8.13;3.80;;;5.10;99.90;;;;;;4954251;29;20031;-85
2021/01/20 11:15:37;;;;;;;4.97;3.72;;;5.10;99.90;;;;;;4954853;29;20031;-89
2021/01/20 11:18:06;;;;;;;8.05;5.25;;;5.00;99.90;;;;;;4957144;28;20345;-88
2021/01/20 11:20:33;;;;;;;8.55;4.40;;;4.90;99.90;;;;;;4956718;28;20591;-88
2021/01/20 11:22:59;;;;;;;5.38;3.72;;;5.00;99.90;;;;;;4957501;29;20023;-88
2021/01/20 11:25:25;;;;;;;7.35;4.07;;;5.10;99.90;;;;;;4954822;29;20031;-82
2021/01/20 11:27:51;;;;;;;7.90;4.40;;;5.10;99.90;;;;;;4955405;28;20094;-83
2021/01/20 11:30:18;;;;;;;9.50;4.22;;;5.10;99.90;;;;;;4956331;29;20073;-85
2021/01/20 11:32:45;;;;;;;12.50;5.07;;;5.20;99.90;;;;;;4955328;28;20158;-86
2021/01/20 11:35:11;;;;;;;7.35;5.32;;;5.20;99.90;;;;;;4955286;28;20602;-85
2021/01/20 11:37:37;;;;;;;7.15;4.13;;;5.30;99.90;;;;;;4956740;28;20066;-85
2021/01/20 11:40:07;;;;;;;9.77;4.90;;;5.30;99.90;;;;;;4958185;29;20047;-84
2021/01/20 11:42:33;;;;;;;10.07;5.53;;;5.20;99.90;;;;;;4959448;28;20228;-84
2021/01/20 11:45:00;;;;;;;9.48;4.80;;;5.10;99.90;;;;;;4957535;29;20407;-85
2021/01/20 11:47:26;;;;;;;9.95;4.95;;;5.20;99.90;;;;;;4959519;28;20074;-85
2021/01/20 11:49:53;;;;;;;9.10;4.57;;;5.20;99.90;;;;;;4957747;29;20423;-86
2021/01/20 11:52:19;;;;;;;6.95;5.00;;;5.20;99.90;;;;;;4958931;28;20047;-85
2021/01/20 11:54:45;;;;;;;8.85;5.03;;;5.20;99.90;;;;;;4960033;28;20031;-85
2021/01/20 11:57:11;;;;;;;10.07;5.65;;;5.20;99.90;;;;;;4961829;28;20030;-85
2021/01/20 11:59:37;;;;;;;8.35;5.28;;;5.00;99.90;;;;;;4958917;28;20475;-86
2021/01/20 12:02:03;;;;;;;9.25;5.03;;;5.20;99.90;;;;;;4958970;28;20023;-86
2021/01/20 12:04:28;;;;;;;10.05;6.18;;;5.30;99.90;;;;;;4959057;28;20429;-88
2021/01/20 12:06:54;;;;;;;8.07;4.80;;;5.40;99.90;;;;;;4959131;28;20038;-86
2021/01/20 12:09:20;;;;;;;8.75;5.10;;;5.50;99.90;;;;;;4959799;28;20047;-87
2021/01/20 12:11:49;;;;;;;9.85;5.32;;;5.80;99.90;;;;;;4957566;29;20031;-84
2021/01/20 12:14:15;;;;;;;10.30;5.38;;;5.60;99.90;;;;;;4957473;29;20035;-87
2021/01/20 12:16:41;;;;;;;9.02;5.00;;;5.70;99.90;;;;;;4957255;29;20364;-86
2021/01/20 12:19:08;;;;;;;9.02;5.32;;;5.70;99.90;;;;;;4957540;29;20174;-86
2021/01/20 12:21:34;;;;;;;8.20;4.93;;;5.70;99.90;;;;;;4957367;29;20050;-88
2021/01/20 12:24:00;;;;;;;7.03;4.72;;;5.70;99.90;;;;;;4957278;29;20043;-85
2021/01/20 12:26:25;;;;;;;9.32;4.72;;;5.70;99.90;;;;;;4957567;29;20427;-85
2021/01/20 12:28:51;;;;;;;11.43;4.65;;;5.60;99.90;;;;;;4958393;28;20034;-85
2021/01/20 12:31:17;;;;;;;7.25;4.47;;;5.80;99.90;;;;;;4957053;29;20031;-84
2021/01/20 12:33:42;;;;;;;9.65;4.55;;;5.70;99.90;;;;;;4957075;29;20553;-86
2021/01/20 12:36:09;;;;;;;8.18;5.20;;;5.80;99.90;;;;;;4956963;28;20031;-87
2021/01/20 12:38:34;;;;;;;11.13;4.70;;;5.80;99.90;;;;;;4957164;29;20033;-85
2021/01/20 12:41:00;;;;;;;6.70;4.70;;;5.70;99.90;;;;;;4956927;29;20450;-85
2021/01/20 12:43:26;;;;;;;7.05;4.50;;;5.80;99.90;;;;;;4956822;29;20475;-83
2021/01/20 12:45:52;;;;;;;9.30;4.78;;;5.70;99.90;;;;;;4957923;28;20126;-85
2021/01/20 12:48:19;;;;;;;13.20;3.90;;;5.60;99.90;;;;;;4957340;28;20035;-85
2021/01/20 12:50:45;;;;;;;9.35;4.53;;;5.60;99.90;;;;;;4957043;29;20439;-85
2021/01/20 12:53:11;;;;;;;8.70;4.07;;;5.70;99.90;;;;;;4956645;29;20034;-85
2021/01/20 12:55:37;;;;;;;8.88;4.50;;;5.70;99.90;;;;;;4957949;28;20035;-83
2021/01/20 12:58:03;;;;;;;5.68;3.65;;;5.70;99.90;;;;;;4956593;29;20053;-85
2021/01/20 13:00:28;;;;;;;9.13;4.05;;;5.60;99.90;;;;;;4957127;29;20031;-86